sensor_id;sensor_type;location;lat;lon;timestamp;P1;durP1;ratioP1;P2;durP2;ratioP2
44446;SDS011;30152;52.066;5.358;2023-12-20T09:13:12;22.77;;;4.15;;
44446;SDS011;30152;52.066;5.358;2023-12-20T09:15:38;29.17;;;3.72;;
44446;SDS011;30152;52.066;5.358;2023-12-20T09:18:04;22.63;;;4.40;;
44446;SDS011;30152;52.066;5.358;2023-12-20T09:20:30;25.85;;;4.22;;
44446;SDS011;30152;52.066;5.358;2023-12-20T09:22:56;23.63;;;4.03;;
44446;SDS011;30152;52.066;5.358;2023-12-20T09:25:23;35.00;;;4.78;;
44446;SDS011;30152;52.066;5.358;2023-12-20T09:27:49;22.70;;;3.67;;
44446;SDS011;30152;52.066;5.358;2023-12-20T09:30:15;25.60;;;4.05;;
44446;SDS011;30152;52.066;5.358;2023-12-20T09:32:40;29.58;;;4.25;;
44446;SDS011;30152;52.066;5.358;2023-12-20T09:35:07;23.63;;;3.58;;
44446;SDS011;30152;52.066;5.358;2023-12-20T09:37:33;26.45;;;4.15;;
44446;SDS011;30152;52.066;5.358;2023-12-20T09:39:59;19.03;;;3.47;;
44446;SDS011;30152;52.066;5.358;2023-12-20T09:42:29;25.65;;;4.40;;
44446;SDS011;30152;52.066;5.358;2023-12-20T09:44:55;23.73;;;4.10;;
44446;SDS011;30152;52.066;5.358;2023-12-20T09:47:24;21.85;;;4.05;;
44446;SDS011;30152;52.066;5.358;2023-12-20T09:49:50;25.90;;;3.75;;
44446;SDS011;30152;52.066;5.358;2023-12-20T09:52:16;27.15;;;4.00;;
44446;SDS011;30152;52.066;5.358;2023-12-20T09:54:43;23.25;;;3.63;;
44446;SDS011;30152;52.066;5.358;2023-12-20T09:57:09;24.30;;;4.13;;
44446;SDS011;30152;52.066;5.358;2023-12-20T09:59:35;24.92;;;3.97;;
44446;SDS011;30152;52.066;5.358;2023-12-20T10:02:01;22.73;;;3.80;;
44446;SDS011;30152;52.066;5.358;2023-12-20T10:04:28;23.05;;;3.72;;
44446;SDS011;30152;52.066;5.358;2023-12-20T10:07:01;18.13;;;3.28;;
44446;SDS011;30152;52.066;5.358;2023-12-20T10:09:29;23.92;;;3.70;;
44446;SDS011;30152;52.066;5.358;2023-12-20T10:11:57;26.33;;;3.42;;
44446;SDS011;30152;52.066;5.358;2023-12-20T10:14:23;25.73;;;4.20;;
44446;SDS011;30152;52.066;5.358;2023-12-20T10:16:49;26.42;;;3.53;;
44446;SDS011;30152;52.066;5.358;2023-12-20T10:19:19;21.90;;;3.15;;
44446;SDS011;30152;52.066;5.358;2023-12-20T10:21:45;23.98;;;4.40;;
44446;SDS011;30152;52.066;5.358;2023-12-20T10:24:11;28.85;;;4.35;;
44446;SDS011;30152;52.066;5.358;2023-12-20T10:26:42;20.63;;;3.63;;
44446;SDS011;30152;52.066;5.358;2023-12-20T10:29:08;20.00;;;3.45;;
44446;SDS011;30152;52.066;5.358;2023-12-20T10:31:35;27.15;;;3.75;;
44446;SDS011;30152;52.066;5.358;2023-12-20T10:34:03;20.15;;;3.65;;
44446;SDS011;30152;52.066;5.358;2023-12-20T10:36:30;21.75;;;3.30;;
44446;SDS011;30152;52.066;5.358;2023-12-20T10:38:56;26.95;;;4.13;;
44446;SDS011;30152;52.066;5.358;2023-12-20T10:41:26;24.83;;;3.43;;
44446;SDS011;30152;52.066;5.358;2023-12-20T10:43:53;25.20;;;4.53;;
44446;SDS011;30152;52.066;5.358;2023-12-20T10:46:27;23.42;;;3.50;;
44446;SDS011;30152;52.066;5.358;2023-12-20T10:48:54;25.42;;;3.95;;
44446;SDS011;30152;52.066;5.358;2023-12-20T10:51:21;19.83;;;3.90;;
44446;SDS011;30152;52.066;5.358;2023-12-20T10:53:48;26.75;;;3.55;;
44446;SDS011;30152;52.066;5.358;2023-12-20T10:56:15;24.63;;;3.63;;
44446;SDS011;30152;52.066;5.358;2023-12-20T10:58:42;20.40;;;3.38;;
44446;SDS011;30152;52.066;5.358;2023-12-20T11:01:10;21.48;;;3.38;;
44446;SDS011;30152;52.066;5.358;2023-12-20T11:03:38;23.63;;;3.63;;
44446;SDS011;30152;52.066;5.358;2023-12-20T11:06:12;20.48;;;3.22;;
44446;SDS011;30152;52.066;5.358;2023-12-20T11:08:44;22.85;;;3.33;;
44446;SDS011;30152;52.066;5.358;2023-12-20T11:11:14;20.05;;;3.85;;
44446;SDS011;30152;52.066;5.358;2023-12-20T11:13:48;24.40;;;3.67;;
44446;SDS011;30152;52.066;5.358;2023-12-20T11:16:19;23.35;;;3.22;;
44446;SDS011;30152;52.066;5.358;2023-12-20T11:18:44;25.60;;;4.00;;
44446;SDS011;30152;52.066;5.358;2023-12-20T11:21:10;19.40;;;3.30;;
44446;SDS011;30152;52.066;5.358;2023-12-20T11:23:36;21.42;;;3.00;;
44446;SDS011;30152;52.066;5.358;2023-12-20T11:26:03;18.38;;;3.22;;
44446;SDS011;30152;52.066;5.358;2023-12-20T11:28:28;18.90;;;3.13;;
44446;SDS011;30152;52.066;5.358;2023-12-20T11:30:57;21.75;;;3.17;;
44446;SDS011;30152;52.066;5.358;2023-12-20T11:33:29;22.33;;;3.00;;
44446;SDS011;30152;52.066;5.358;2023-12-20T11:35:56;21.27;;;3.60;;
44446;SDS011;30152;52.066;5.358;2023-12-20T11:38:22;21.77;;;3.63;;
44446;SDS011;30152;52.066;5.358;2023-12-20T11:40:49;18.42;;;3.13;;
44446;SDS011;30152;52.066;5.358;2023-12-20T11:46:03;15.82;;;2.60;;
44446;SDS011;30152;52.066;5.358;2023-12-20T11:48:31;20.25;;;3.38;;
44446;SDS011;30152;52.066;5.358;2023-12-20T11:50:57;21.07;;;3.27;;
44446;SDS011;30152;52.066;5.358;2023-12-20T11:53:23;20.80;;;3.40;;
44446;SDS011;30152;52.066;5.358;2023-12-20T11:55:49;17.63;;;3.30;;
44446;SDS011;30152;52.066;5.358;2023-12-20T11:58:15;20.58;;;3.38;;
44446;SDS011;30152;52.066;5.358;2023-12-20T12:00:41;21.83;;;3.30;;
44446;SDS011;30152;52.066;5.358;2023-12-20T12:03:08;19.75;;;3.28;;
44446;SDS011;30152;52.066;5.358;2023-12-20T12:05:34;19.73;;;3.83;;
44446;SDS011;30152;52.066;5.358;2023-12-20T12:08:00;15.65;;;2.67;;
44446;SDS011;30152;52.066;5.358;2023-12-20T12:10:26;19.50;;;3.10;;
44446;SDS011;30152;52.066;5.358;2023-12-20T12:12:52;17.58;;;3.13;;
44446;SDS011;30152;52.066;5.358;2023-12-20T12:15:18;18.50;;;3.55;;
44446;SDS011;30152;52.066;5.358;2023-12-20T12:17:44;17.33;;;3.30;;
44446;SDS011;30152;52.066;5.358;2023-12-20T12:20:19;22.25;;;2.97;;
44446;SDS011;30152;52.066;5.358;2023-12-20T12:22:45;18.52;;;2.95;;
44446;SDS011;30152;52.066;5.358;2023-12-20T12:25:15;14.33;;;2.67;;
44446;SDS011;30152;52.066;5.358;2023-12-20T12:27:42;18.20;;;3.10;;
44446;SDS011;30152;52.066;5.358;2023-12-20T12:30:08;17.38;;;2.70;;
44446;SDS011;30152;52.066;5.358;2023-12-20T12:32:34;20.02;;;3.15;;
44446;SDS011;30152;52.066;5.358;2023-12-20T12:35:02;21.05;;;3.40;;
44446;SDS011;30152;52.066;5.358;2023-12-20T12:37:29;18.00;;;3.03;;
44446;SDS011;30152;52.066;5.358;2023-12-20T12:39:55;21.75;;;2.90;;
44446;SDS011;30152;52.066;5.358;2023-12-20T12:42:21;18.40;;;3.10;;
44446;SDS011;30152;52.066;5.358;2023-12-20T12:44:50;19.83;;;2.97;;
44446;SDS011;30152;52.066;5.358;2023-12-20T12:47:17;17.55;;;3.28;;
44446;SDS011;30152;52.066;5.358;2023-12-20T12:49:43;19.10;;;3.70;;
44446;SDS011;30152;52.066;5.358;2023-12-20T12:52:09;16.40;;;2.60;;
44446;SDS011;30152;52.066;5.358;2023-12-20T12:54:35;20.85;;;2.97;;
44446;SDS011;30152;52.066;5.358;2023-12-20T12:57:01;23.08;;;3.35;;
44446;SDS011;30152;52.066;5.358;2023-12-20T12:59:27;23.77;;;3.25;;
44446;SDS011;30152;52.066;5.358;2023-12-20T13:01:53;20.60;;;3.42;;
44446;SDS011;30152;52.066;5.358;2023-12-20T13:04:19;15.57;;;2.73;;
44446;SDS011;30152;52.066;5.358;2023-12-20T13:06:45;22.55;;;3.05;;
44446;SDS011;30152;52.066;5.358;2023-12-20T13:09:12;22.60;;;4.13;;
44446;SDS011;30152;52.066;5.358;2023-12-20T13:11:37;17.67;;;3.00;;
44446;SDS011;30152;52.066;5.358;2023-12-20T13:14:03;22.20;;;3.23;;
44446;SDS011;30152;52.066;5.358;2023-12-20T13:16:29;23.37;;;3.40;;
44446;SDS011;30152;52.066;5.358;2023-12-20T13:18:55;19.07;;;3.30;;
44446;SDS011;30152;52.066;5.358;2023-12-20T13:21:21;18.60;;;3.10;;
44446;SDS011;30152;52.066;5.358;2023-12-20T13:23:47;23.25;;;3.85;;
44446;SDS011;30152;52.066;5.358;2023-12-20T13:26:14;18.80;;;3.10;;
44446;SDS011;30152;52.066;5.358;2023-12-20T13:28:40;21.10;;;3.00;;
44446;SDS011;30152;52.066;5.358;2023-12-20T13:31:06;22.17;;;3.43;;
44446;SDS011;30152;52.066;5.358;2023-12-20T13:33:31;21.63;;;3.20;;
44446;SDS011;30152;52.066;5.358;2023-12-20T13:35:57;20.00;;;3.30;;
44446;SDS011;30152;52.066;5.358;2023-12-20T13:38:24;18.52;;;2.67;;
44446;SDS011;30152;52.066;5.358;2023-12-20T13:40:50;22.83;;;3.97;;
44446;SDS011;30152;52.066;5.358;2023-12-20T13:43:19;19.55;;;3.30;;
44446;SDS011;30152;52.066;5.358;2023-12-20T13:45:47;22.30;;;3.45;;
44446;SDS011;30152;52.066;5.358;2023-12-20T13:48:12;20.23;;;2.88;;
44446;SDS011;30152;52.066;5.358;2023-12-20T13:50:38;18.93;;;3.07;;
44446;SDS011;30152;52.066;5.358;2023-12-20T13:53:04;21.25;;;2.95;;
44446;SDS011;30152;52.066;5.358;2023-12-20T13:55:30;20.63;;;3.67;;
44446;SDS011;30152;52.066;5.358;2023-12-20T13:57:56;19.42;;;3.05;;
44446;SDS011;30152;52.066;5.358;2023-12-20T14:00:23;17.25;;;3.38;;
44446;SDS011;30152;52.066;5.358;2023-12-20T14:02:49;18.10;;;3.00;;
44446;SDS011;30152;52.066;5.358;2023-12-20T14:05:16;19.92;;;3.17;;
44446;SDS011;30152;52.066;5.358;2023-12-20T14:07:45;21.70;;;3.00;;
44446;SDS011;30152;52.066;5.358;2023-12-20T14:10:11;20.13;;;2.88;;
44446;SDS011;30152;52.066;5.358;2023-12-20T14:12:38;20.52;;;2.95;;
44446;SDS011;30152;52.066;5.358;2023-12-20T14:15:05;18.08;;;2.70;;
44446;SDS011;30152;52.066;5.358;2023-12-20T14:17:36;19.10;;;3.25;;
44446;SDS011;30152;52.066;5.358;2023-12-20T14:20:02;21.90;;;3.25;;
44446;SDS011;30152;52.066;5.358;2023-12-20T14:22:28;20.33;;;2.90;;
44446;SDS011;30152;52.066;5.358;2023-12-20T14:24:54;22.30;;;2.88;;
44446;SDS011;30152;52.066;5.358;2023-12-20T14:27:22;19.10;;;2.92;;
44446;SDS011;30152;52.066;5.358;2023-12-20T14:29:49;16.47;;;2.63;;
44446;SDS011;30152;52.066;5.358;2023-12-20T14:32:15;20.48;;;3.35;;
44446;SDS011;30152;52.066;5.358;2023-12-20T14:34:42;14.85;;;3.33;;
44446;SDS011;30152;52.066;5.358;2023-12-20T14:37:07;19.40;;;2.63;;
44446;SDS011;30152;52.066;5.358;2023-12-20T14:39:33;18.97;;;3.40;;
44446;SDS011;30152;52.066;5.358;2023-12-20T14:41:59;19.48;;;3.28;;
44446;SDS011;30152;52.066;5.358;2023-12-20T14:44:25;16.25;;;2.95;;
44446;SDS011;30152;52.066;5.358;2023-12-20T14:46:51;18.45;;;3.10;;
44446;SDS011;30152;52.066;5.358;2023-12-20T14:49:17;21.15;;;3.47;;
44446;SDS011;30152;52.066;5.358;2023-12-20T14:51:43;22.93;;;3.37;;
44446;SDS011;30152;52.066;5.358;2023-12-20T14:54:09;23.75;;;3.58;;
44446;SDS011;30152;52.066;5.358;2023-12-20T14:56:35;19.77;;;3.50;;
44446;SDS011;30152;52.066;5.358;2023-12-20T14:59:01;20.90;;;3.35;;
44446;SDS011;30152;52.066;5.358;2023-12-20T15:01:27;22.23;;;3.50;;
44446;SDS011;30152;52.066;5.358;2023-12-20T15:03:53;15.32;;;3.13;;
44446;SDS011;30152;52.066;5.358;2023-12-20T15:06:20;27.15;;;3.63;;
44446;SDS011;30152;52.066;5.358;2023-12-20T15:08:46;16.63;;;3.00;;
44446;SDS011;30152;52.066;5.358;2023-12-20T15:11:12;21.00;;;3.30;;
44446;SDS011;30152;52.066;5.358;2023-12-20T15:13:39;22.70;;;3.73;;
44446;SDS011;30152;52.066;5.358;2023-12-20T15:16:05;23.10;;;3.23;;
44446;SDS011;30152;52.066;5.358;2023-12-20T15:18:31;17.63;;;2.78;;
44446;SDS011;30152;52.066;5.358;2023-12-20T15:20:57;20.92;;;3.53;;
44446;SDS011;30152;52.066;5.358;2023-12-20T15:23:23;23.80;;;3.13;;
44446;SDS011;30152;52.066;5.358;2023-12-20T15:25:51;20.73;;;3.30;;
44446;SDS011;30152;52.066;5.358;2023-12-20T15:28:17;20.17;;;2.53;;
44446;SDS011;30152;52.066;5.358;2023-12-20T15:30:43;24.30;;;3.60;;
44446;SDS011;30152;52.066;5.358;2023-12-20T15:33:09;24.67;;;3.55;;
44446;SDS011;30152;52.066;5.358;2023-12-20T15:35:34;21.60;;;3.73;;
44446;SDS011;30152;52.066;5.358;2023-12-20T15:38:00;17.98;;;3.38;;
44446;SDS011;30152;52.066;5.358;2023-12-20T15:40:26;20.55;;;3.13;;
44446;SDS011;30152;52.066;5.358;2023-12-20T15:42:52;25.85;;;3.65;;
44446;SDS011;30152;52.066;5.358;2023-12-20T15:45:19;24.65;;;4.40;;
44446;SDS011;30152;52.066;5.358;2023-12-20T15:47:44;25.77;;;3.73;;
44446;SDS011;30152;52.066;5.358;2023-12-20T15:50:11;21.60;;;3.75;;
44446;SDS011;30152;52.066;5.358;2023-12-20T15:52:37;23.83;;;3.92;;
44446;SDS011;30152;52.066;5.358;2023-12-20T15:55:03;23.07;;;4.57;;
44446;SDS011;30152;52.066;5.358;2023-12-20T15:57:29;23.83;;;3.88;;
44446;SDS011;30152;52.066;5.358;2023-12-20T15:59:55;24.83;;;4.63;;
44446;SDS011;30152;52.066;5.358;2023-12-20T16:02:21;22.33;;;4.00;;
44446;SDS011;30152;52.066;5.358;2023-12-20T16:04:47;32.37;;;4.40;;
44446;SDS011;30152;52.066;5.358;2023-12-20T16:07:13;26.23;;;3.90;;
44446;SDS011;30152;52.066;5.358;2023-12-20T16:09:39;22.17;;;4.22;;
44446;SDS011;30152;52.066;5.358;2023-12-20T16:12:05;26.08;;;4.00;;
44446;SDS011;30152;52.066;5.358;2023-12-20T16:14:31;19.67;;;3.67;;
44446;SDS011;30152;52.066;5.358;2023-12-20T16:16:57;21.30;;;3.95;;
44446;SDS011;30152;52.066;5.358;2023-12-20T16:19:24;23.73;;;4.05;;
44446;SDS011;30152;52.066;5.358;2023-12-20T16:21:50;21.50;;;4.10;;
44446;SDS011;30152;52.066;5.358;2023-12-20T16:24:16;20.73;;;3.80;;
44446;SDS011;30152;52.066;5.358;2023-12-20T16:26:42;21.17;;;4.70;;
44446;SDS011;30152;52.066;5.358;2023-12-20T16:29:08;19.27;;;3.40;;
44446;SDS011;30152;52.066;5.358;2023-12-20T16:31:34;21.05;;;4.53;;
44446;SDS011;30152;52.066;5.358;2023-12-20T16:34:00;19.60;;;3.57;;
44446;SDS011;30152;52.066;5.358;2023-12-20T16:36:27;26.77;;;4.00;;
44446;SDS011;30152;52.066;5.358;2023-12-20T16:39:14;19.63;;;4.00;;
44446;SDS011;30152;52.066;5.358;2023-12-20T16:41:40;24.27;;;4.03;;
44446;SDS011;30152;52.066;5.358;2023-12-20T16:44:06;20.90;;;3.90;;
44446;SDS011;30152;52.066;5.358;2023-12-20T16:46:32;18.50;;;3.60;;
44446;SDS011;30152;52.066;5.358;2023-12-20T16:48:57;16.60;;;3.80;;
44446;SDS011;30152;52.066;5.358;2023-12-20T16:51:23;20.47;;;4.30;;
44446;SDS011;30152;52.066;5.358;2023-12-20T16:53:49;25.70;;;4.63;;
44446;SDS011;30152;52.066;5.358;2023-12-20T16:56:15;21.80;;;4.38;;
44446;SDS011;30152;52.066;5.358;2023-12-20T16:58:41;22.20;;;4.40;;
44446;SDS011;30152;52.066;5.358;2023-12-20T17:01:07;21.75;;;3.63;;
44446;SDS011;30152;52.066;5.358;2023-12-20T17:03:35;19.08;;;3.47;;
44446;SDS011;30152;52.066;5.358;2023-12-20T17:06:01;21.17;;;3.65;;
44446;SDS011;30152;52.066;5.358;2023-12-20T17:08:26;21.73;;;3.93;;
44446;SDS011;30152;52.066;5.358;2023-12-20T17:10:52;23.30;;;4.38;;
44446;SDS011;30152;52.066;5.358;2023-12-20T17:13:18;21.27;;;4.20;;
44446;SDS011;30152;52.066;5.358;2023-12-20T17:15:44;22.10;;;4.30;;
44446;SDS011;30152;52.066;5.358;2023-12-20T17:18:10;20.70;;;4.63;;
44446;SDS011;30152;52.066;5.358;2023-12-20T17:20:36;20.10;;;4.22;;
44446;SDS011;30152;52.066;5.358;2023-12-20T17:23:02;23.88;;;4.68;;
44446;SDS011;30152;52.066;5.358;2023-12-20T17:25:28;21.73;;;4.97;;
44446;SDS011;30152;52.066;5.358;2023-12-20T17:27:53;19.20;;;4.50;;
44446;SDS011;30152;52.066;5.358;2023-12-20T17:30:21;18.33;;;4.53;;
44446;SDS011;30152;52.066;5.358;2023-12-20T17:32:47;22.45;;;4.97;;
44446;SDS011;30152;52.066;5.358;2023-12-20T17:35:15;21.30;;;5.60;;
44446;SDS011;30152;52.066;5.358;2023-12-20T17:37:41;21.35;;;5.00;;
44446;SDS011;30152;52.066;5.358;2023-12-20T17:40:07;20.80;;;6.37;;
44446;SDS011;30152;52.066;5.358;2023-12-20T17:42:33;20.90;;;5.68;;
44446;SDS011;30152;52.066;5.358;2023-12-20T17:44:59;21.42;;;5.82;;
44446;SDS011;30152;52.066;5.358;2023-12-20T17:47:25;22.27;;;5.90;;
44446;SDS011;30152;52.066;5.358;2023-12-20T17:49:54;20.27;;;6.45;;
44446;SDS011;30152;52.066;5.358;2023-12-20T17:52:20;26.52;;;6.65;;
44446;SDS011;30152;52.066;5.358;2023-12-20T17:54:46;27.50;;;6.97;;
44446;SDS011;30152;52.066;5.358;2023-12-20T17:57:12;25.23;;;6.90;;
44446;SDS011;30152;52.066;5.358;2023-12-20T17:59:37;25.10;;;7.13;;
44446;SDS011;30152;52.066;5.358;2023-12-20T18:02:05;23.90;;;7.13;;
44446;SDS011;30152;52.066;5.358;2023-12-20T18:04:31;26.80;;;6.80;;
44446;SDS011;30152;52.066;5.358;2023-12-20T18:06:56;31.70;;;8.02;;
44446;SDS011;30152;52.066;5.358;2023-12-20T18:09:22;30.33;;;7.85;;
44446;SDS011;30152;52.066;5.358;2023-12-20T18:11:48;25.40;;;6.97;;
44446;SDS011;30152;52.066;5.358;2023-12-20T18:14:14;25.33;;;7.32;;
44446;SDS011;30152;52.066;5.358;2023-12-20T18:16:41;25.58;;;7.45;;
44446;SDS011;30152;52.066;5.358;2023-12-20T18:19:06;22.63;;;6.55;;
44446;SDS011;30152;52.066;5.358;2023-12-20T18:21:32;30.63;;;7.57;;
44446;SDS011;30152;52.066;5.358;2023-12-20T18:23:58;25.55;;;7.57;;
44446;SDS011;30152;52.066;5.358;2023-12-20T18:26:26;28.65;;;7.82;;
44446;SDS011;30152;52.066;5.358;2023-12-20T18:28:52;26.02;;;7.07;;
44446;SDS011;30152;52.066;5.358;2023-12-20T18:31:18;30.02;;;7.47;;
44446;SDS011;30152;52.066;5.358;2023-12-20T18:33:43;27.73;;;7.67;;
44446;SDS011;30152;52.066;5.358;2023-12-20T18:36:09;28.40;;;7.63;;
44446;SDS011;30152;52.066;5.358;2023-12-20T18:38:35;34.47;;;8.18;;
44446;SDS011;30152;52.066;5.358;2023-12-20T18:41:01;33.67;;;8.27;;
44446;SDS011;30152;52.066;5.358;2023-12-20T18:43:29;28.15;;;7.65;;
44446;SDS011;30152;52.066;5.358;2023-12-20T18:45:54;29.03;;;7.17;;
44446;SDS011;30152;52.066;5.358;2023-12-20T18:48:21;24.05;;;7.05;;
44446;SDS011;30152;52.066;5.358;2023-12-20T18:50:47;27.63;;;7.32;;
44446;SDS011;30152;52.066;5.358;2023-12-20T18:53:13;24.63;;;6.45;;
44446;SDS011;30152;52.066;5.358;2023-12-20T18:55:39;25.63;;;6.57;;
44446;SDS011;30152;52.066;5.358;2023-12-20T18:58:05;24.23;;;6.28;;
44446;SDS011;30152;52.066;5.358;2023-12-20T19:00:31;27.50;;;6.40;;
44446;SDS011;30152;52.066;5.358;2023-12-20T19:02:57;29.53;;;6.93;;
44446;SDS011;30152;52.066;5.358;2023-12-20T19:05:23;28.17;;;6.67;;
44446;SDS011;30152;52.066;5.358;2023-12-20T19:07:51;29.50;;;7.40;;
44446;SDS011;30152;52.066;5.358;2023-12-20T19:10:18;34.22;;;6.07;;
44446;SDS011;30152;52.066;5.358;2023-12-20T19:12:45;27.33;;;5.80;;
44446;SDS011;30152;52.066;5.358;2023-12-20T19:15:10;28.43;;;6.00;;
44446;SDS011;30152;52.066;5.358;2023-12-20T19:17:36;20.77;;;5.50;;
44446;SDS011;30152;52.066;5.358;2023-12-20T19:20:02;29.33;;;5.67;;
44446;SDS011;30152;52.066;5.358;2023-12-20T19:22:29;28.63;;;5.87;;
44446;SDS011;30152;52.066;5.358;2023-12-20T19:24:57;27.05;;;6.18;;
44446;SDS011;30152;52.066;5.358;2023-12-20T19:27:24;25.17;;;5.90;;
44446;SDS011;30152;52.066;5.358;2023-12-20T19:29:51;25.80;;;5.90;;
44446;SDS011;30152;52.066;5.358;2023-12-20T19:32:22;24.15;;;5.93;;
44446;SDS011;30152;52.066;5.358;2023-12-20T19:34:48;27.98;;;5.45;;
44446;SDS011;30152;52.066;5.358;2023-12-20T19:37:15;23.73;;;6.10;;
44446;SDS011;30152;52.066;5.358;2023-12-20T19:39:42;24.33;;;5.95;;
44446;SDS011;30152;52.066;5.358;2023-12-20T19:42:08;25.77;;;5.15;;
44446;SDS011;30152;52.066;5.358;2023-12-20T19:44:34;24.77;;;5.70;;
44446;SDS011;30152;52.066;5.358;2023-12-20T19:47:00;21.00;;;5.17;;
44446;SDS011;30152;52.066;5.358;2023-12-20T19:49:26;25.83;;;5.30;;
44446;SDS011;30152;52.066;5.358;2023-12-20T19:51:52;26.85;;;5.45;;
44446;SDS011;30152;52.066;5.358;2023-12-20T19:54:18;22.70;;;4.88;;
44446;SDS011;30152;52.066;5.358;2023-12-20T19:56:44;25.67;;;5.70;;
44446;SDS011;30152;52.066;5.358;2023-12-20T19:59:10;24.60;;;5.13;;
44446;SDS011;30152;52.066;5.358;2023-12-20T20:01:36;23.65;;;5.78;;
44446;SDS011;30152;52.066;5.358;2023-12-20T20:04:05;23.25;;;5.72;;
44446;SDS011;30152;52.066;5.358;2023-12-20T20:06:30;25.20;;;5.20;;
44446;SDS011;30152;52.066;5.358;2023-12-20T20:08:57;22.02;;;5.18;;
44446;SDS011;30152;52.066;5.358;2023-12-20T20:11:23;24.58;;;5.28;;
44446;SDS011;30152;52.066;5.358;2023-12-20T20:13:49;21.52;;;5.65;;
44446;SDS011;30152;52.066;5.358;2023-12-20T20:16:14;18.10;;;5.30;;
44446;SDS011;30152;52.066;5.358;2023-12-20T20:18:40;20.52;;;5.88;;
44446;SDS011;30152;52.066;5.358;2023-12-20T20:21:06;23.80;;;5.88;;
44446;SDS011;30152;52.066;5.358;2023-12-20T20:23:32;20.40;;;5.93;;
44446;SDS011;30152;52.066;5.358;2023-12-20T20:25:58;21.07;;;5.50;;
44446;SDS011;30152;52.066;5.358;2023-12-20T20:28:24;18.65;;;5.70;;
44446;SDS011;30152;52.066;5.358;2023-12-20T20:30:53;18.70;;;6.17;;
44446;SDS011;30152;52.066;5.358;2023-12-20T20:33:20;16.25;;;5.82;;
44446;SDS011;30152;52.066;5.358;2023-12-20T20:35:46;20.33;;;6.05;;
44446;SDS011;30152;52.066;5.358;2023-12-20T20:38:12;26.70;;;6.97;;
44446;SDS011;30152;52.066;5.358;2023-12-20T20:40:38;20.35;;;6.10;;
44446;SDS011;30152;52.066;5.358;2023-12-20T20:43:04;27.60;;;6.13;;
44446;SDS011;30152;52.066;5.358;2023-12-20T20:45:30;24.58;;;6.50;;
44446;SDS011;30152;52.066;5.358;2023-12-20T20:47:56;23.63;;;6.10;;
44446;SDS011;30152;52.066;5.358;2023-12-20T20:50:22;24.25;;;5.80;;
44446;SDS011;30152;52.066;5.358;2023-12-20T20:52:47;25.87;;;6.33;;
44446;SDS011;30152;52.066;5.358;2023-12-20T20:55:13;24.63;;;6.07;;
44446;SDS011;30152;52.066;5.358;2023-12-20T20:57:39;18.92;;;5.70;;
44446;SDS011;30152;52.066;5.358;2023-12-20T21:00:05;24.70;;;5.57;;
44446;SDS011;30152;52.066;5.358;2023-12-20T21:02:31;23.80;;;5.47;;
44446;SDS011;30152;52.066;5.358;2023-12-20T21:04:57;28.00;;;5.35;;
44446;SDS011;30152;52.066;5.358;2023-12-20T21:07:28;23.73;;;5.50;;
44446;SDS011;30152;52.066;5.358;2023-12-20T21:09:58;28.15;;;5.68;;
44446;SDS011;30152;52.066;5.358;2023-12-20T21:12:23;19.13;;;5.22;;
44446;SDS011;30152;52.066;5.358;2023-12-20T21:14:55;18.55;;;5.00;;
44446;SDS011;30152;52.066;5.358;2023-12-20T21:17:22;19.65;;;4.93;;
44446;SDS011;30152;52.066;5.358;2023-12-20T21:19:48;28.73;;;6.03;;
44446;SDS011;30152;52.066;5.358;2023-12-20T21:22:14;23.08;;;5.38;;
44446;SDS011;30152;52.066;5.358;2023-12-20T21:24:39;21.83;;;4.67;;
44446;SDS011;30152;52.066;5.358;2023-12-20T21:27:05;19.88;;;4.60;;
44446;SDS011;30152;52.066;5.358;2023-12-20T21:29:32;22.23;;;4.97;;
44446;SDS011;30152;52.066;5.358;2023-12-20T21:31:58;19.45;;;4.97;;
44446;SDS011;30152;52.066;5.358;2023-12-20T21:34:24;21.13;;;4.78;;
44446;SDS011;30152;52.066;5.358;2023-12-20T21:36:50;19.70;;;4.57;;
44446;SDS011;30152;52.066;5.358;2023-12-20T21:39:18;19.87;;;4.67;;
44446;SDS011;30152;52.066;5.358;2023-12-20T21:41:44;18.10;;;4.60;;
44446;SDS011;30152;52.066;5.358;2023-12-20T21:44:10;22.70;;;4.85;;
44446;SDS011;30152;52.066;5.358;2023-12-20T21:46:36;21.63;;;4.53;;
44446;SDS011;30152;52.066;5.358;2023-12-20T21:49:05;21.35;;;4.72;;
44446;SDS011;30152;52.066;5.358;2023-12-20T21:51:31;22.98;;;5.10;;
44446;SDS011;30152;52.066;5.358;2023-12-20T21:53:57;23.17;;;5.20;;
44446;SDS011;30152;52.066;5.358;2023-12-20T21:56:28;20.08;;;4.68;;
44446;SDS011;30152;52.066;5.358;2023-12-20T21:58:54;21.77;;;5.60;;
44446;SDS011;30152;52.066;5.358;2023-12-20T22:01:20;21.10;;;5.82;;
44446;SDS011;30152;52.066;5.358;2023-12-20T22:03:46;21.70;;;4.75;;
44446;SDS011;30152;52.066;5.358;2023-12-20T22:06:12;18.23;;;4.35;;
44446;SDS011;30152;52.066;5.358;2023-12-20T22:08:37;22.53;;;4.57;;
44446;SDS011;30152;52.066;5.358;2023-12-20T22:11:03;18.38;;;4.25;;
44446;SDS011;30152;52.066;5.358;2023-12-20T22:13:29;24.30;;;5.13;;
44446;SDS011;30152;52.066;5.358;2023-12-20T22:15:58;16.13;;;4.25;;
44446;SDS011;30152;52.066;5.358;2023-12-20T22:18:24;18.13;;;3.72;;
44446;SDS011;30152;52.066;5.358;2023-12-20T22:20:50;17.67;;;4.30;;
44446;SDS011;30152;52.066;5.358;2023-12-20T22:23:16;12.50;;;3.38;;
44446;SDS011;30152;52.066;5.358;2023-12-20T22:25:42;19.60;;;4.72;;
44446;SDS011;30152;52.066;5.358;2023-12-20T22:28:09;19.60;;;4.53;;
